Time;durP1;ratioP1;P1;durP2;ratioP2;P2;SDS_P1;SDS_P2;PMS_P1;PMS_P2;Temp;Humidity;BMP_temperature;BMP_pressure;BME280_temperature;BME280_humidity;BME280_pressure;Samples;Min_cycle;Max_cycle;Signal;HPM_P1;HPM_P2
2021/06/27 00:01:33;;;;;;;83.38;27.58;;;;;;;;;;5074134;28;20024;-72
2021/06/27 00:03:59;;;;;;;46.13;18.55;;;;;;;;;;5072913;28;20387;-72
2021/06/27 00:06:25;;;;;;;13.43;8.02;;;;;;;;;;5074057;28;20103;-72
2021/06/27 00:08:51;;;;;;;10.90;7.13;;;;;;;;;;5074211;28;20028;-72
2021/06/27 00:11:17;;;;;;;6.63;4.80;;;;;;;;;;5073880;28;20101;-72
2021/06/27 00:13:44;;;;;;;8.50;5.18;;;;;;;;;;5073732;28;20394;-72
2021/06/27 00:16:10;;;;;;;8.40;5.03;;;;;;;;;;5073957;28;20024;-72
2021/06/27 00:18:37;;;;;;;8.95;4.95;;;;;;;;;;5073686;28;20020;-72
2021/06/27 00:21:04;;;;;;;5.88;4.80;;;;;;;;;;5059562;28;20104;-72
2021/06/27 00:23:35;;;;;;;8.80;4.85;;;;;;;;;;5059259;28;20029;-72
2021/06/27 00:26:03;;;;;;;7.28;5.05;;;;;;;;;;5073921;28;20032;-72
2021/06/27 00:28:29;;;;;;;6.88;4.90;;;;;;;;;;5073310;28;20031;-72
2021/06/27 00:30:57;;;;;;;8.52;6.15;;;;;;;;;;5073744;28;20020;-72
2021/06/27 00:33:23;;;;;;;5.55;4.47;;;;;;;;;;5073504;28;20051;-72
2021/06/27 00:35:50;;;;;;;7.68;4.35;;;;;;;;;;5073788;28;20023;-73
2021/06/27 00:38:16;;;;;;;8.38;4.55;;;;;;;;;;5073423;28;20021;-73
2021/06/27 00:40:43;;;;;;;7.65;4.70;;;;;;;;;;5073669;28;20060;-72
2021/06/27 00:43:09;;;;;;;5.53;4.55;;;;;;;;;;5073253;28;20028;-72
2021/06/27 00:45:35;;;;;;;7.20;4.30;;;;;;;;;;5073366;28;20498;-73
2021/06/27 00:48:05;;;;;;;5.60;4.05;;;;;;;;;;5073502;28;20434;-73
2021/06/27 00:50:51;;;;;;;7.90;5.15;;;;;;;;;;5073420;28;20020;-72
2021/06/27 00:53:18;;;;;;;7.43;4.43;;;;;;;;;;5072985;28;20020;-72
2021/06/27 00:55:44;;;;;;;9.50;4.20;;;;;;;;;;5073157;28;20112;-72
2021/06/27 00:58:10;;;;;;;6.03;4.53;;;;;;;;;;5088478;28;20098;-73
2021/06/27 01:00:38;;;;;;;8.05;4.70;;;;;;;;;;5073049;28;20021;-73
2021/06/27 01:03:05;;;;;;;7.25;4.95;;;;;;;;;;5072896;28;20063;-72
2021/06/27 01:05:33;;;;;;;7.40;5.07;;;;;;;;;;5073163;28;20024;-72
2021/06/27 01:07:59;;;;;;;7.72;4.35;;;;;;;;;;5072730;28;20028;-73
2021/06/27 01:10:25;;;;;;;8.73;4.28;;;;;;;;;;5073052;28;20024;-72
2021/06/27 01:12:52;;;;;;;7.72;4.78;;;;;;;;;;5071529;28;20380;-72
2021/06/27 01:15:18;;;;;;;7.28;5.10;;;;;;;;;;5072788;28;20483;-72
2021/06/27 01:17:46;;;;;;;37.40;5.35;;;;;;;;;;5072639;28;20029;-72
2021/06/27 01:20:14;;;;;;;4.97;4.10;;;;;;;;;;5065443;28;20021;-72
2021/06/27 01:22:40;;;;;;;5.57;4.03;;;;;;;;;;5062762;28;20029;-72
2021/06/27 01:25:07;;;;;;;8.30;5.35;;;;;;;;;;5071829;28;20058;-72
2021/06/27 01:27:33;;;;;;;7.85;3.83;;;;;;;;;;5072410;28;20037;-72
2021/06/27 01:30:00;;;;;;;7.95;4.03;;;;;;;;;;5072318;28;20027;-72
2021/06/27 01:32:26;;;;;;;6.57;4.20;;;;;;;;;;5072629;28;20494;-72
2021/06/27 01:34:52;;;;;;;5.95;3.78;;;;;;;;;;5072454;28;20386;-72
2021/06/27 01:37:18;;;;;;;7.95;4.57;;;;;;;;;;5072633;28;20039;-72
2021/06/27 01:39:44;;;;;;;6.97;4.38;;;;;;;;;;5072425;28;20029;-72
2021/06/27 01:42:10;;;;;;;7.40;5.22;;;;;;;;;;5072587;28;20078;-73
2021/06/27 01:44:36;;;;;;;8.43;4.95;;;;;;;;;;5072424;28;20024;-71
2021/06/27 01:47:02;;;;;;;7.47;5.05;;;;;;;;;;5072095;28;20040;-71
2021/06/27 01:49:29;;;;;;;7.75;4.93;;;;;;;;;;5072194;28;20033;-72
2021/06/27 01:51:55;;;;;;;6.43;4.72;;;;;;;;;;5072406;28;20550;-72
2021/06/27 01:54:21;;;;;;;11.60;4.97;;;;;;;;;;5071916;28;20040;-72
2021/06/27 01:56:48;;;;;;;10.75;4.53;;;;;;;;;;5072388;28;20021;-72
2021/06/27 01:59:14;;;;;;;6.75;4.03;;;;;;;;;;5071957;28;20431;-71
2021/06/27 02:01:40;;;;;;;9.23;4.55;;;;;;;;;;5072375;28;20024;-72
2021/06/27 02:04:07;;;;;;;6.60;4.32;;;;;;;;;;5071965;28;20055;-72
2021/06/27 02:06:38;;;;;;;6.13;4.75;;;;;;;;;;5072213;28;20510;-72
2021/06/27 02:09:06;;;;;;;6.93;4.38;;;;;;;;;;5072024;28;20528;-72
2021/06/27 02:11:32;;;;;;;7.35;5.05;;;;;;;;;;5072338;28;20070;-72
2021/06/27 02:13:58;;;;;;;8.80;4.88;;;;;;;;;;5071846;28;20113;-72
2021/06/27 02:16:26;;;;;;;8.68;5.28;;;;;;;;;;5072153;28;20028;-71
2021/06/27 02:18:52;;;;;;;7.20;5.07;;;;;;;;;;5071995;28;20479;-73
2021/06/27 02:21:23;;;;;;;9.00;5.13;;;;;;;;;;5059760;28;20087;-72
2021/06/27 02:23:49;;;;;;;7.10;4.63;;;;;;;;;;5072031;28;20059;-72
2021/06/27 02:26:15;;;;;;;8.48;4.93;;;;;;;;;;5071810;28;20100;-72
2021/06/27 02:28:41;;;;;;;6.63;4.68;;;;;;;;;;5071901;28;20032;-72
2021/06/27 02:31:08;;;;;;;6.90;4.28;;;;;;;;;;5087241;28;20518;-72
2021/06/27 02:33:34;;;;;;;6.32;4.57;;;;;;;;;;5072020;28;20467;-71
2021/06/27 02:36:01;;;;;;;6.35;4.53;;;;;;;;;;5073211;28;20070;-72
2021/06/27 02:38:27;;;;;;;7.38;5.20;;;;;;;;;;5075962;28;20107;-72
2021/06/27 02:40:54;;;;;;;9.00;5.78;;;;;;;;;;5075858;28;20033;-73
2021/06/27 02:43:20;;;;;;;8.45;5.82;;;;;;;;;;5075602;28;20035;-72
2021/06/27 02:45:47;;;;;;;7.43;5.40;;;;;;;;;;5075840;28;20024;-72
2021/06/27 02:48:13;;;;;;;11.10;6.07;;;;;;;;;;5091072;28;20511;-72
2021/06/27 02:50:40;;;;;;;8.02;5.80;;;;;;;;;;5075728;28;20027;-72
2021/06/27 02:53:07;;;;;;;8.70;5.07;;;;;;;;;;5075097;28;20099;-72
2021/06/27 02:55:34;;;;;;;22.25;6.28;;;;;;;;;;5074117;28;20380;-72
2021/06/27 02:58:00;;;;;;;8.77;5.65;;;;;;;;;;5075194;28;20028;-72
2021/06/27 03:00:28;;;;;;;10.90;5.70;;;;;;;;;;5075541;28;20031;-73
2021/06/27 03:02:54;;;;;;;9.07;6.05;;;;;;;;;;5075237;28;20548;-72
2021/06/27 03:05:20;;;;;;;8.90;5.72;;;;;;;;;;5075765;28;20032;-72
2021/06/27 03:07:46;;;;;;;9.73;5.57;;;;;;;;;;5076303;28;20056;-72
2021/06/27 03:10:13;;;;;;;8.13;5.28;;;;;;;;;;5075310;28;20017;-71
2021/06/27 03:12:40;;;;;;;8.68;5.65;;;;;;;;;;5073408;28;20111;-72
2021/06/27 03:15:07;;;;;;;9.65;5.97;;;;;;;;;;5075316;28;20021;-72
2021/06/27 03:17:33;;;;;;;10.63;6.90;;;;;;;;;;5073683;28;20119;-72
2021/06/27 03:19:59;;;;;;;8.02;5.75;;;;;;;;;;5069591;28;20032;-72
2021/06/27 03:22:25;;;;;;;8.98;5.68;;;;;;;;;;5064400;28;20032;-72
2021/06/27 03:24:51;;;;;;;9.52;5.97;;;;;;;;;;5074996;28;20552;-72
2021/06/27 03:27:19;;;;;;;9.15;6.25;;;;;;;;;;5074702;28;20032;-71
2021/06/27 03:29:46;;;;;;;8.73;6.18;;;;;;;;;;5074981;28;20027;-73
2021/06/27 03:32:12;;;;;;;9.85;6.18;;;;;;;;;;5090332;28;20032;-72
2021/06/27 03:34:38;;;;;;;7.28;5.57;;;;;;;;;;5074888;28;20063;-73
2021/06/27 03:37:04;;;;;;;11.23;6.18;;;;;;;;;;5074628;28;20403;-71
2021/06/27 03:39:30;;;;;;;11.32;5.65;;;;;;;;;;5074735;28;20467;-72
2021/06/27 03:41:57;;;;;;;10.82;6.60;;;;;;;;;;5074530;28;20662;-72
2021/06/27 03:44:23;;;;;;;7.18;5.88;;;;;;;;;;5090338;28;20027;-72
2021/06/27 03:46:50;;;;;;;9.18;5.70;;;;;;;;;;5074147;28;20035;-72
2021/06/27 03:49:16;;;;;;;9.02;5.47;;;;;;;;;;5074314;28;20020;-72
2021/06/27 03:51:42;;;;;;;11.68;6.38;;;;;;;;;;5074349;28;20382;-71
2021/06/27 03:54:09;;;;;;;8.35;6.82;;;;;;;;;;5074180;28;20091;-72
2021/06/27 03:56:35;;;;;;;8.60;5.55;;;;;;;;;;5074360;28;20036;-72
2021/06/27 03:59:02;;;;;;;7.57;5.47;;;;;;;;;;5074453;28;20017;-72
2021/06/27 04:01:28;;;;;;;7.55;5.22;;;;;;;;;;5074120;28;20028;-71
2021/06/27 04:03:54;;;;;;;7.07;5.80;;;;;;;;;;5074488;28;20048;-71
2021/06/27 04:06:20;;;;;;;10.82;5.63;;;;;;;;;;5074090;28;20024;-72
2021/06/27 04:08:46;;;;;;;7.40;5.28;;;;;;;;;;5074181;28;20028;-72
2021/06/27 04:11:12;;;;;;;6.22;4.85;;;;;;;;;;5074081;28;20048;-72
2021/06/27 04:13:38;;;;;;;10.25;6.00;;;;;;;;;;5074255;28;20025;-72
2021/06/27 04:16:05;;;;;;;8.50;5.63;;;;;;;;;;5072581;28;20540;-72
2021/06/27 04:18:32;;;;;;;7.22;5.75;;;;;;;;;;5074079;28;20031;-71
2021/06/27 04:20:58;;;;;;;9.27;5.45;;;;;;;;;;5073187;28;20103;-72
2021/06/27 04:23:25;;;;;;;7.07;6.05;;;;;;;;;;5073862;28;20107;-72
2021/06/27 04:25:51;;;;;;;8.63;5.50;;;;;;;;;;5073670;28;20032;-72
2021/06/27 04:28:17;;;;;;;8.52;5.63;;;;;;;;;;5073844;28;20028;-72
2021/06/27 04:30:44;;;;;;;8.70;4.85;;;;;;;;;;5073558;28;20380;-72
2021/06/27 04:33:10;;;;;;;7.72;5.82;;;;;;;;;;5071218;28;20017;-72
2021/06/27 04:35:37;;;;;;;7.00;4.72;;;;;;;;;;5053685;28;20027;-72
2021/06/27 04:38:04;;;;;;;5.40;4.43;;;;;;;;;;5053680;28;20387;-72
2021/06/27 04:40:30;;;;;;;6.97;4.68;;;;;;;;;;5053664;28;20029;-72
2021/06/27 04:42:56;;;;;;;6.57;4.55;;;;;;;;;;5053614;28;20150;-72
2021/06/27 04:45:22;;;;;;;8.18;5.55;;;;;;;;;;5071476;28;20028;-72
2021/06/27 04:47:49;;;;;;;8.48;4.70;;;;;;;;;;5073272;28;20033;-72
2021/06/27 04:50:15;;;;;;;9.65;5.25;;;;;;;;;;5073375;28;20032;-72
2021/06/27 04:52:41;;;;;;;7.88;4.65;;;;;;;;;;5073163;28;20020;-72
2021/06/27 04:55:07;;;;;;;6.45;4.10;;;;;;;;;;5073099;28;20196;-72
2021/06/27 04:57:34;;;;;;;5.97;4.63;;;;;;;;;;5073078;28;20032;-72
2021/06/27 05:00:00;;;;;;;7.00;4.45;;;;;;;;;;5070895;28;20067;-72
2021/06/27 05:02:26;;;;;;;6.65;4.25;;;;;;;;;;5073025;28;20020;-72
2021/06/27 05:04:53;;;;;;;5.60;4.15;;;;;;;;;;5071957;28;20028;-72
2021/06/27 05:07:19;;;;;;;7.63;4.32;;;;;;;;;;5072515;28;20025;-71
2021/06/27 05:09:45;;;;;;;5.45;3.75;;;;;;;;;;5071849;28;20035;-72
2021/06/27 05:12:11;;;;;;;8.95;4.07;;;;;;;;;;5072708;28;20115;-72
2021/06/27 05:14:37;;;;;;;5.72;4.43;;;;;;;;;;5072447;28;20020;-72
2021/06/27 05:17:03;;;;;;;5.63;4.20;;;;;;;;;;5086401;28;20360;-71
2021/06/27 05:19:29;;;;;;;4.97;4.22;;;;;;;;;;5068562;28;20115;-71
2021/06/27 05:21:55;;;;;;;6.80;4.22;;;;;;;;;;5069668;28;20082;-72
2021/06/27 05:24:21;;;;;;;8.15;4.72;;;;;;;;;;5073950;28;20016;-72
2021/06/27 05:26:48;;;;;;;6.47;4.30;;;;;;;;;;5072467;28;20032;-72
2021/06/27 05:29:14;;;;;;;9.60;4.53;;;;;;;;;;5072074;28;20506;-73
2021/06/27 05:31:40;;;;;;;5.35;4.15;;;;;;;;;;5072010;28;20082;-72
2021/06/27 05:34:06;;;;;;;6.25;4.10;;;;;;;;;;5072281;28;20020;-72
2021/06/27 05:36:39;;;;;;;6.78;3.95;;;;;;;;;;5071605;28;20025;-72
2021/06/27 05:39:09;;;;;;;6.97;4.65;;;;;;;;;;5071730;28;20036;-72
2021/06/27 05:41:36;;;;;;;6.88;4.00;;;;;;;;;;5072595;28;20102;-71
2021/06/27 05:44:02;;;;;;;6.00;4.53;;;;;;;;;;5072238;28;20036;-72
2021/06/27 05:46:28;;;;;;;7.07;4.63;;;;;;;;;;5072080;28;20640;-72
2021/06/27 05:48:54;;;;;;;8.63;4.13;;;;;;;;;;5071247;28;20028;-72
2021/06/27 05:51:20;;;;;;;8.07;4.05;;;;;;;;;;5072447;28;20113;-72
2021/06/27 05:53:47;;;;;;;6.47;3.72;;;;;;;;;;5071431;28;20075;-72
2021/06/27 05:56:16;;;;;;;7.30;4.60;;;;;;;;;;5072355;28;20045;-72
2021/06/27 05:58:43;;;;;;;6.05;4.68;;;;;;;;;;5071682;28;20039;-71
2021/06/27 06:01:10;;;;;;;6.50;4.75;;;;;;;;;;5071939;28;20052;-72
2021/06/27 06:03:37;;;;;;;6.15;4.75;;;;;;;;;;5071509;28;20028;-72
2021/06/27 06:06:04;;;;;;;8.77;4.53;;;;;;;;;;5072298;28;20386;-72
2021/06/27 06:08:30;;;;;;;6.93;4.88;;;;;;;;;;5071418;28;20109;-72
2021/06/27 06:10:56;;;;;;;10.20;4.90;;;;;;;;;;5071550;28;20078;-72
2021/06/27 06:13:22;;;;;;;10.02;4.63;;;;;;;;;;5070644;28;20408;-71
2021/06/27 06:15:49;;;;;;;7.75;4.93;;;;;;;;;;5071857;28;20023;-72
2021/06/27 06:18:15;;;;;;;9.88;5.18;;;;;;;;;;5071702;28;20032;-72
2021/06/27 06:20:41;;;;;;;6.97;5.10;;;;;;;;;;5059347;28;20037;-72
2021/06/27 06:23:07;;;;;;;6.05;4.88;;;;;;;;;;5057108;28;20033;-72
2021/06/27 06:25:33;;;;;;;6.10;4.57;;;;;;;;;;5071793;28;20043;-72
2021/06/27 06:27:59;;;;;;;11.43;5.82;;;;;;;;;;5071462;28;20021;-72
2021/06/27 06:30:26;;;;;;;9.00;4.85;;;;;;;;;;5071257;28;20028;-72
2021/06/27 06:32:52;;;;;;;9.10;5.13;;;;;;;;;;5071466;28;20097;-72
2021/06/27 06:35:18;;;;;;;7.55;5.22;;;;;;;;;;5071036;28;20183;-72
2021/06/27 06:37:44;;;;;;;7.20;5.03;;;;;;;;;;5071681;28;20573;-72
2021/06/27 06:40:10;;;;;;;6.95;5.07;;;;;;;;;;5071191;28;20100;-72
2021/06/27 06:42:36;;;;;;;8.98;5.40;;;;;;;;;;5071577;28;20616;-72
2021/06/27 06:45:03;;;;;;;8.00;4.97;;;;;;;;;;5071255;28;20025;-72
2021/06/27 06:47:29;;;;;;;9.30;4.57;;;;;;;;;;5071660;28;20479;-72
2021/06/27 06:49:55;;;;;;;8.32;4.95;;;;;;;;;;5071121;28;20043;-72
2021/06/27 06:52:22;;;;;;;8.65;5.00;;;;;;;;;;5071914;28;20021;-72
2021/06/27 06:54:48;;;;;;;9.13;4.55;;;;;;;;;;5070784;28;20145;-72
2021/06/27 06:57:15;;;;;;;6.30;4.20;;;;;;;;;;5071743;28;20032;-73
2021/06/27 06:59:41;;;;;;;6.88;4.90;;;;;;;;;;5068793;28;20036;-73
2021/06/27 07:02:07;;;;;;;8.55;5.75;;;;;;;;;;5071479;28;20029;-72
2021/06/27 07:04:33;;;;;;;8.75;4.68;;;;;;;;;;5070788;28;20032;-72
2021/06/27 07:06:59;;;;;;;6.53;4.38;;;;;;;;;;5071153;28;20383;-71
2021/06/27 07:09:25;;;;;;;8.63;4.80;;;;;;;;;;5071451;28;20021;-72
2021/06/27 07:11:51;;;;;;;11.35;6.22;;;;;;;;;;5070290;28;20031;-71
2021/06/27 07:14:17;;;;;;;8.38;5.93;;;;;;;;;;5070172;28;20024;-73
2021/06/27 07:16:43;;;;;;;9.38;4.82;;;;;;;;;;5071397;28;20028;-73
2021/06/27 07:19:09;;;;;;;5.90;4.85;;;;;;;;;;5071035;28;20032;-73
2021/06/27 07:21:37;;;;;;;6.70;4.75;;;;;;;;;;5067460;28;20490;-73
2021/06/27 07:24:03;;;;;;;7.55;4.65;;;;;;;;;;5073977;28;20035;-72
2021/06/27 07:26:29;;;;;;;6.70;4.25;;;;;;;;;;5074507;28;20410;-72
2021/06/27 07:28:55;;;;;;;6.57;4.07;;;;;;;;;;5074434;28;20095;-72
2021/06/27 07:31:21;;;;;;;10.85;4.63;;;;;;;;;;5073631;28;20075;-72
2021/06/27 07:33:48;;;;;;;6.32;4.10;;;;;;;;;;5074648;28;20060;-73
2021/06/27 07:36:14;;;;;;;10.10;4.75;;;;;;;;;;5073676;28;20031;-72
2021/06/27 07:38:40;;;;;;;8.27;4.38;;;;;;;;;;5073243;28;20028;-72
2021/06/27 07:41:06;;;;;;;6.18;4.22;;;;;;;;;;5074795;28;20509;-72
2021/06/27 07:43:33;;;;;;;10.32;4.20;;;;;;;;;;5073643;28;20111;-72
2021/06/27 07:46:00;;;;;;;7.93;3.83;;;;;;;;;;5074141;28;20029;-72
2021/06/27 07:48:26;;;;;;;6.32;3.88;;;;;;;;;;5074250;28;20074;-72
2021/06/27 07:50:52;;;;;;;6.82;3.65;;;;;;;;;;5074698;28;20356;-72
2021/06/27 07:53:18;;;;;;;8.23;4.18;;;;;;;;;;5073688;28;20060;-72
2021/06/27 07:55:44;;;;;;;7.75;3.90;;;;;;;;;;5074148;28;20075;-72
2021/06/27 07:58:10;;;;;;;4.75;3.97;;;;;;;;;;5072919;28;20051;-73
2021/06/27 08:00:36;;;;;;;5.57;3.60;;;;;;;;;;5071801;28;20028;-73
2021/06/27 08:03:03;;;;;;;4.93;3.60;;;;;;;;;;5064072;28;20044;-73
2021/06/27 08:05:29;;;;;;;7.90;4.07;;;;;;;;;;5059123;28;20483;-73
2021/06/27 08:07:55;;;;;;;5.07;3.83;;;;;;;;;;5074043;28;20039;-72
2021/06/27 08:10:21;;;;;;;8.82;4.45;;;;;;;;;;5073502;28;20081;-73
2021/06/27 08:12:47;;;;;;;5.15;3.92;;;;;;;;;;5074215;28;20024;-73
2021/06/27 08:15:19;;;;;;;6.75;3.80;;;;;;;;;;5072860;28;20020;-72
2021/06/27 08:17:46;;;;;;;7.55;4.00;;;;;;;;;;5074569;28;20036;-73
2021/06/27 08:20:12;;;;;;;6.38;3.58;;;;;;;;;;5076648;28;20431;-73
2021/06/27 08:22:39;;;;;;;3.88;3.47;;;;;;;;;;5073935;28;20111;-73
2021/06/27 08:25:05;;;;;;;6.63;4.15;;;;;;;;;;5073365;28;20032;-72
2021/06/27 08:27:31;;;;;;;5.43;3.83;;;;;;;;;;5073658;28;20458;-73
2021/06/27 08:29:58;;;;;;;4.70;3.63;;;;;;;;;;5073281;28;20017;-72
2021/06/27 08:32:24;;;;;;;5.40;3.83;;;;;;;;;;5073458;28;20031;-73
2021/06/27 08:34:50;;;;;;;5.78;3.85;;;;;;;;;;5073177;28;20021;-72
2021/06/27 08:37:16;;;;;;;4.15;3.72;;;;;;;;;;5073161;28;20028;-73
2021/06/27 08:39:42;;;;;;;6.35;3.47;;;;;;;;;;5072153;28;20036;-72
2021/06/27 08:42:08;;;;;;;5.65;3.80;;;;;;;;;;5073481;28;20032;-73
2021/06/27 08:44:35;;;;;;;4.90;3.15;;;;;;;;;;5073105;28;20036;-73
2021/06/27 08:47:03;;;;;;;5.38;3.35;;;;;;;;;;5073336;28;20028;-73
2021/06/27 08:49:29;;;;;;;4.80;3.38;;;;;;;;;;5072463;28;20430;-72
2021/06/27 08:51:56;;;;;;;10.25;3.60;;;;;;;;;;5064244;28;20435;-72
2021/06/27 08:54:22;;;;;;;7.88;3.20;;;;;;;;;;5073008;28;20039;-72
2021/06/27 08:56:48;;;;;;;5.82;3.53;;;;;;;;;;5072890;28;20050;-72
2021/06/27 08:59:14;;;;;;;5.80;3.38;;;;;;;;;;5073113;28;20690;-72
2021/06/27 09:01:40;;;;;;;6.95;3.42;;;;;;;;;;5072863;28;20105;-72
2021/06/27 09:04:06;;;;;;;7.20;3.53;;;;;;;;;;5073103;28;20031;-73
2021/06/27 09:06:33;;;;;;;5.03;3.13;;;;;;;;;;5072298;28;20044;-72
2021/06/27 09:09:15;;;;;;;3.72;3.10;;;;;;;;;;5072970;28;20157;-72
2021/06/27 09:11:42;;;;;;;6.35;2.97;;;;;;;;;;5072612;28;20025;-72
2021/06/27 09:14:27;;;;;;;3.85;3.03;;;;;;;;;;5072447;28;20020;-73
2021/06/27 09:17:12;;;;;;;3.58;2.85;;;;;;;;;;5072238;28;20028;-73
2021/06/27 09:19:53;;;;;;;3.05;2.75;;;;;;;;;;5070545;28;20077;-73
2021/06/27 09:22:20;;;;;;;5.70;2.90;;;;;;;;;;5072216;28;20047;-72
2021/06/27 09:24:47;;;;;;;6.38;3.22;;;;;;;;;;5072455;28;20043;-72
2021/06/27 09:27:16;;;;;;;5.18;2.65;;;;;;;;;;5072016;28;20032;-73
2021/06/27 09:29:42;;;;;;;3.90;2.35;;;;;;;;;;5072382;28;20778;-73
2021/06/27 09:32:16;;;;;;;5.13;3.15;;;;;;;;;;5072336;28;20031;-72
2021/06/27 09:34:46;;;;;;;3.05;2.70;;;;;;;;;;5072446;28;20021;-72
2021/06/27 09:37:13;;;;;;;4.88;2.83;;;;;;;;;;5071492;28;20082;-72
2021/06/27 09:39:59;;;;;;;3.80;2.75;;;;;;;;;;5072351;28;20025;-72
2021/06/27 09:42:26;;;;;;;6.07;2.72;;;;;;;;;;5070870;28;20111;-72
2021/06/27 09:45:01;;;;;;;3.65;2.78;;;;;;;;;;5071188;28;20021;-73
2021/06/27 09:47:27;;;;;;;;;;;;;;;;;;5072251;28;20032;-74
2021/06/27 09:49:54;;;;;;;6.57;2.70;;;;;;;;;;5071562;28;20038;-73
2021/06/27 09:52:34;;;;;;;2.85;2.50;;;;;;;;;;5070187;28;20028;-72
2021/06/27 09:55:11;;;;;;;3.95;2.40;;;;;;;;;;5070489;28;20043;-72
2021/06/27 09:57:37;;;;;;;7.95;2.72;;;;;;;;;;5085838;28;20105;-72
2021/06/27 10:00:05;;;;;;;6.28;2.40;;;;;;;;;;5070375;28;20483;-72
2021/06/27 10:02:50;;;;;;;4.13;2.50;;;;;;;;;;5068876;28;20060;-72
2021/06/27 10:05:25;;;;;;;2.58;2.20;;;;;;;;;;5070387;28;20398;-72
2021/06/27 10:07:52;;;;;;;3.22;2.50;;;;;;;;;;5070358;28;20029;-72
2021/06/27 10:10:19;;;;;;;3.75;2.40;;;;;;;;;;5072023;28;20485;-72
2021/06/27 10:12:45;;;;;;;3.90;2.20;;;;;;;;;;5072015;28;20102;-72
2021/06/27 10:15:14;;;;;;;3.88;2.63;;;;;;;;;;5072384;28;20082;-73
2021/06/27 10:17:41;;;;;;;2.85;2.55;;;;;;;;;;5072099;28;20024;-72
2021/06/27 10:20:08;;;;;;;2.92;2.40;;;;;;;;;;5065504;28;20025;-72
2021/06/27 10:22:35;;;;;;;3.90;2.50;;;;;;;;;;5059204;28;20036;-72
2021/06/27 10:25:02;;;;;;;5.68;2.88;;;;;;;;;;5072285;28;20103;-72
2021/06/27 10:27:29;;;;;;;4.13;2.38;;;;;;;;;;5071894;28;20089;-72
2021/06/27 10:29:55;;;;;;;3.58;2.70;;;;;;;;;;5072062;28;20096;-72
2021/06/27 10:32:21;;;;;;;2.88;2.40;;;;;;;;;;5072011;28;20095;-72
2021/06/27 10:34:48;;;;;;;4.88;2.35;;;;;;;;;;5072411;28;20027;-72
2021/06/27 10:37:32;;;;;;;4.15;2.30;;;;;;;;;;5071686;28;20522;-72
2021/06/27 10:40:09;;;;;;;2.30;2.10;;;;;;;;;;5071944;28;20032;-72
2021/06/27 10:42:50;;;;;;;3.13;2.83;;;;;;;;;;5071807;28;20043;-73
2021/06/27 10:45:16;;;;;;;4.53;2.40;;;;;;;;;;5071966;28;20024;-73
2021/06/27 10:47:42;;;;;;;2.92;2.22;;;;;;;;;;5071712;28;20067;-72
2021/06/27 10:50:10;;;;;;;2.70;2.03;;;;;;;;;;5071839;28;20020;-72
2021/06/27 10:52:52;;;;;;;2.30;2.10;;;;;;;;;;5071742;28;20020;-72
2021/06/27 10:55:18;;;;;;;2.10;1.90;;;;;;;;;;5071700;28;20090;-72
2021/06/27 10:58:02;;;;;;;2.83;2.30;;;;;;;;;;5074198;28;20066;-72
2021/06/27 11:00:48;;;;;;;2.67;2.28;;;;;;;;;;5075726;28;20024;-72
2021/06/27 11:03:44;;;;;;;3.33;1.95;;;;;;;;;;5075266;28;20036;-72
2021/06/27 11:06:19;;;;;;;3.47;2.25;;;;;;;;;;5065397;28;20039;-72
2021/06/27 11:08:51;;;;;;;2.10;1.90;;;;;;;;;;5075170;28;20470;-72
2021/06/27 11:11:19;;;;;;;3.70;2.40;;;;;;;;;;5075249;28;20021;-72
2021/06/27 11:14:06;;;;;;;3.30;2.35;;;;;;;;;;5075209;28;20017;-72
2021/06/27 11:16:52;;;;;;;4.28;2.55;;;;;;;;;;5074933;28;20025;-72
2021/06/27 11:19:26;;;;;;;4.75;2.60;;;;;;;;;;5075042;28;20081;-72
2021/06/27 11:22:11;;;;;;;3.25;2.08;;;;;;;;;;5061100;28;20028;-72
2021/06/27 11:24:37;;;;;;;3.13;2.45;;;;;;;;;;5075329;28;20479;-72
2021/06/27 11:27:04;;;;;;;2.88;2.20;;;;;;;;;;5074844;28;20226;-72
2021/06/27 11:29:30;;;;;;;3.95;2.10;;;;;;;;;;5075085;28;20021;-73
2021/06/27 11:32:16;;;;;;;3.40;2.40;;;;;;;;;;5074940;28;20020;-72
2021/06/27 11:34:58;;;;;;;5.10;2.47;;;;;;;;;;5074340;28;20025;-73
2021/06/27 11:37:25;;;;;;;3.88;2.70;;;;;;;;;;5074069;28;20032;-72
2021/06/27 11:39:55;;;;;;;2.50;2.30;;;;;;;;;;5074307;28;20069;-72
2021/06/27 11:42:30;;;;;;;2.85;2.30;;;;;;;;;;5075009;28;20021;-72
2021/06/27 11:45:09;;;;;;;4.63;3.22;;;;;;;;;;5074496;28;20058;-72
2021/06/27 11:47:36;;;;;;;3.08;2.40;;;;;;;;;;5074445;28;20028;-72
2021/06/27 11:50:18;;;;;;;3.78;2.47;;;;;;;;;;5074364;28;20097;-73
2021/06/27 11:52:45;;;;;;;3.55;2.58;;;;;;;;;;5074122;28;20029;-73
2021/06/27 11:55:11;;;;;;;3.83;2.55;;;;;;;;;;5074173;28;20495;-72
2021/06/27 11:57:40;;;;;;;2.92;2.65;;;;;;;;;;5074613;28;20036;-72
2021/06/27 12:00:07;;;;;;;4.55;2.25;;;;;;;;;;5074281;28;20364;-72
2021/06/27 12:02:36;;;;;;;3.13;2.30;;;;;;;;;;5074308;28;20035;-73
2021/06/27 12:05:03;;;;;;;2.70;2.30;;;;;;;;;;5074388;28;20097;-73
2021/06/27 12:07:34;;;;;;;2.70;2.40;;;;;;;;;;5074448;28;20510;-73
2021/06/27 12:10:05;;;;;;;2.88;2.42;;;;;;;;;;5073686;28;20058;-73
2021/06/27 12:12:40;;;;;;;3.88;2.50;;;;;;;;;;5074383;28;20031;-73
2021/06/27 12:15:06;;;;;;;;;;;;;;;;;;5074508;28;20092;-72
2021/06/27 12:17:32;;;;;;;2.78;2.28;;;;;;;;;;5074166;28;19912;-72
2021/06/27 12:19:58;;;;;;;3.03;2.30;;;;;;;;;;5068635;28;20021;-72
2021/06/27 12:22:25;;;;;;;4.00;2.35;;;;;;;;;;5054183;28;20692;-73
2021/06/27 12:24:51;;;;;;;2.92;2.10;;;;;;;;;;5068322;28;20028;-74
2021/06/27 12:27:17;;;;;;;4.57;2.40;;;;;;;;;;5074083;28;20111;-73
2021/06/27 12:29:53;;;;;;;4.43;2.63;;;;;;;;;;5073826;28;20020;-72
2021/06/27 12:32:19;;;;;;;2.63;2.13;;;;;;;;;;5073881;28;20028;-73
2021/06/27 12:34:45;;;;;;;4.38;2.38;;;;;;;;;;5073522;28;20383;-72
2021/06/27 12:37:12;;;;;;;5.75;4.20;;;;;;;;;;5073840;28;20100;-73
2021/06/27 12:39:38;;;;;;;3.33;2.50;;;;;;;;;;5073611;28;20031;-72
2021/06/27 12:42:12;;;;;;;3.75;2.38;;;;;;;;;;5074113;28;20386;-73
2021/06/27 12:44:38;;;;;;;4.38;2.80;;;;;;;;;;5073578;28;20487;-72
2021/06/27 12:47:04;;;;;;;2.20;2.00;;;;;;;;;;5073244;28;20115;-73
2021/06/27 12:49:33;;;;;;;2.78;2.25;;;;;;;;;;5073556;28;20019;-73
2021/06/27 12:52:03;;;;;;;6.93;2.97;;;;;;;;;;5073365;28;20016;-72
2021/06/27 12:54:45;;;;;;;3.80;2.17;;;;;;;;;;5073321;28;20117;-73
2021/06/27 12:57:14;;;;;;;3.28;2.20;;;;;;;;;;5072828;28;20028;-72
2021/06/27 12:59:43;;;;;;;2.45;2.15;;;;;;;;;;5072983;28;20028;-71
2021/06/27 13:02:21;;;;;;;2.05;1.85;;;;;;;;;;5053376;28;20021;-73
2021/06/27 13:04:47;;;;;;;4.13;2.22;;;;;;;;;;5056508;28;20596;-73
2021/06/27 13:07:13;;;;;;;2.40;2.20;;;;;;;;;;5073010;28;20056;-73
2021/06/27 13:09:41;;;;;;;2.25;1.95;;;;;;;;;;5072864;28;20020;-73
2021/06/27 13:12:08;;;;;;;2.45;2.10;;;;;;;;;;5072748;28;20029;-72
2021/06/27 13:14:35;;;;;;;2.22;2.03;;;;;;;;;;5072876;28;20025;-72
2021/06/27 13:17:02;;;;;;;2.30;2.10;;;;;;;;;;5072580;28;20035;-73
2021/06/27 13:19:28;;;;;;;2.33;2.00;;;;;;;;;;5071103;28;20029;-73
2021/06/27 13:22:13;;;;;;;6.00;2.50;;;;;;;;;;5052252;28;20032;-73
2021/06/27 13:24:58;;;;;;;2.20;2.00;;;;;;;;;;5072319;28;20058;-73
2021/06/27 13:27:25;;;;;;;1.85;1.60;;;;;;;;;;5072587;28;20048;-72
2021/06/27 13:30:05;;;;;;;3.20;1.92;;;;;;;;;;5071466;28;20032;-72
2021/06/27 13:32:31;;;;;;;2.05;1.85;;;;;;;;;;5072420;28;20020;-72
2021/06/27 13:34:57;;;;;;;2.03;1.83;;;;;;;;;;5072603;28;20037;-73
2021/06/27 13:37:23;;;;;;;2.13;1.90;;;;;;;;;;5072713;28;20039;-72
2021/06/27 13:39:49;;;;;;;2.85;1.80;;;;;;;;;;5072358;28;20033;-72
2021/06/27 13:42:16;;;;;;;2.40;2.03;;;;;;;;;;5072602;28;20095;-72
2021/06/27 13:45:05;;;;;;;2.20;2.00;;;;;;;;;;5072447;28;20048;-73
2021/06/27 13:47:32;;;;;;;2.60;2.20;;;;;;;;;;5071228;28;20088;-73
2021/06/27 13:49:58;;;;;;;2.40;2.00;;;;;;;;;;5072056;28;20016;-73
2021/06/27 13:52:24;;;;;;;2.97;2.00;;;;;;;;;;5072475;28;20443;-72
2021/06/27 13:54:51;;;;;;;2.50;2.30;;;;;;;;;;5071763;28;20047;-72
2021/06/27 13:57:17;;;;;;;2.85;2.00;;;;;;;;;;5072352;28;20027;-71
2021/06/27 13:59:43;;;;;;;3.42;2.60;;;;;;;;;;5071897;28;20103;-71
2021/06/27 14:02:09;;;;;;;2.60;2.40;;;;;;;;;;5072422;28;20021;-73
2021/06/27 14:04:35;;;;;;;2.80;2.45;;;;;;;;;;5072041;28;20059;-72
2021/06/27 14:07:01;;;;;;;2.40;2.20;;;;;;;;;;5072171;28;20021;-72
2021/06/27 14:09:27;;;;;;;3.33;2.58;;;;;;;;;;5072062;28;20028;-73
2021/06/27 14:11:53;;;;;;;2.60;2.25;;;;;;;;;;5071953;28;20032;-72
2021/06/27 14:14:20;;;;;;;3.22;2.10;;;;;;;;;;5072070;28;20069;-73
2021/06/27 14:16:47;;;;;;;2.42;2.22;;;;;;;;;;5071992;28;20371;-73
2021/06/27 14:19:16;;;;;;;2.85;2.15;;;;;;;;;;5072237;28;20104;-73
2021/06/27 14:21:49;;;;;;;2.47;2.22;;;;;;;;;;5057766;28;20024;-73
2021/06/27 14:24:15;;;;;;;3.15;2.20;;;;;;;;;;5072135;28;20017;-72
2021/06/27 14:26:41;;;;;;;3.08;2.30;;;;;;;;;;5071755;28;20426;-72
2021/06/27 14:29:07;;;;;;;3.47;2.40;;;;;;;;;;5071956;28;20158;-72
2021/06/27 14:31:34;;;;;;;2.17;1.98;;;;;;;;;;5072352;28;20360;-72
2021/06/27 14:34:03;;;;;;;2.10;1.90;;;;;;;;;;5075782;28;20028;-73
2021/06/27 14:36:29;;;;;;;2.92;2.72;;;;;;;;;;5075607;28;20512;-72
2021/06/27 14:38:56;;;;;;;1.90;1.70;;;;;;;;;;5075811;28;20110;-73
2021/06/27 14:41:27;;;;;;;2.38;2.17;;;;;;;;;;5075949;28;20028;-72
2021/06/27 14:43:53;;;;;;;1.88;1.75;;;;;;;;;;5075500;28;20024;-72
2021/06/27 14:46:19;;;;;;;2.42;2.20;;;;;;;;;;5075540;28;20024;-72
2021/06/27 14:48:46;;;;;;;2.35;2.10;;;;;;;;;;5075774;28;20029;-73